createdAt,value
2019-03-09T00:16:28.808Z,6.10
2019-03-09T00:22:40.978Z,5.40
2019-03-09T00:25:21.458Z,5.57
2019-03-09T00:28:52.190Z,5.77
2019-03-09T00:35:30.007Z,4.60
2019-03-09T00:38:51.854Z,6.07
2019-03-09T00:45:24.088Z,5.30
2019-03-09T00:47:49.070Z,4.70
2019-03-09T00:50:18.125Z,6.47
2019-03-09T00:53:04.693Z,5.30
2019-03-09T01:00:05.035Z,6.03
2019-03-09T01:03:20.105Z,4.13
2019-03-09T01:06:10.113Z,4.67
2019-03-09T01:19:43.668Z,6.00
2019-03-09T01:22:18.513Z,7.92
2019-03-09T01:28:17.776Z,9.00
2019-03-09T01:30:46.955Z,6.90
2019-03-09T01:33:16.104Z,6.20
2019-03-09T01:36:39.625Z,8.80
2019-03-09T01:39:47.463Z,6.83
2019-03-09T01:43:46.206Z,6.63
2019-03-09T01:46:22.678Z,6.60
2019-03-09T01:48:53.723Z,6.30
2019-03-09T01:51:23.011Z,6.60
2019-03-09T01:53:52.321Z,7.30
2019-03-09T01:56:21.758Z,6.33
2019-03-09T01:58:50.940Z,6.80
2019-03-09T02:01:20.256Z,7.30
2019-03-09T02:03:49.759Z,7.70
2019-03-09T02:06:19.174Z,8.30
2019-03-09T02:08:48.474Z,9.37
2019-03-09T02:11:17.742Z,8.63
2019-03-09T02:13:47.059Z,7.07
2019-03-09T02:16:16.444Z,9.37
2019-03-09T02:19:47.120Z,10.13
2019-03-09T02:30:37.275Z,10.40
2019-03-09T02:32:44.383Z,13.03
2019-03-09T02:37:15.217Z,13.50
2019-03-09T02:40:05.164Z,11.77
2019-03-09T02:46:43.729Z,12.60
2019-03-09T02:58:49.304Z,9.97
2019-03-09T03:02:31.349Z,9.97
2019-03-09T03:13:44.726Z,8.33
2019-03-09T03:16:08.600Z,9.30
2019-03-09T03:18:38.431Z,9.70
2019-03-09T03:24:31.653Z,10.40
2019-03-09T03:26:57.977Z,9.77
2019-03-09T03:30:36.450Z,9.90
2019-03-09T03:41:29.061Z,11.03
2019-03-09T03:44:11.995Z,11.63
2019-03-09T03:46:41.192Z,11.63
2019-03-09T03:52:19.026Z,13.10
2019-03-09T03:55:18.334Z,10.67
2019-03-09T03:58:06.852Z,12.00
2019-03-09T04:01:59.442Z,11.77
2019-03-09T04:04:32.385Z,11.73
2019-03-09T04:07:03.048Z,12.30
2019-03-09T04:09:32.213Z,10.80
2019-03-09T04:12:01.493Z,10.70
2019-03-09T04:16:15.594Z,10.13
2019-03-09T04:18:51.031Z,9.93
2019-03-09T04:22:36.436Z,10.47
2019-03-09T04:40:50.736Z,7.93
2019-03-09T04:51:12.146Z,6.00
2019-03-09T04:53:41.797Z,6.83
2019-03-09T04:56:29.286Z,6.13
2019-03-09T04:58:58.715Z,5.90
2019-03-09T05:01:28.041Z,5.80
2019-03-09T05:04:51.134Z,4.37
2019-03-09T05:19:29.448Z,4.53
2019-03-09T05:21:58.787Z,4.57
2019-03-09T05:24:28.481Z,5.10
2019-03-09T05:26:58.468Z,4.30
2019-03-09T05:29:29.242Z,4.43
2019-03-09T05:31:59.423Z,4.23
2019-03-09T05:47:43.992Z,4.60
2019-03-09T05:50:13.566Z,3.27
2019-03-09T05:52:42.966Z,4.10
2019-03-09T06:08:04.127Z,3.50
2019-03-09T06:11:43.899Z,3.90
2019-03-09T06:18:53.009Z,4.13
2019-03-09T06:21:22.963Z,3.33
2019-03-09T06:23:53.074Z,3.57
2019-03-09T06:26:23.831Z,3.47
2019-03-09T06:28:53.117Z,4.57
2019-03-09T06:32:37.988Z,3.60
2019-03-09T06:36:24.179Z,3.30
2019-03-09T06:38:59.085Z,3.37
2019-03-09T06:45:30.431Z,3.20
2019-03-09T06:48:00.442Z,2.97
2019-03-09T06:51:56.011Z,2.97
2019-03-09T06:55:36.271Z,3.93
2019-03-09T06:58:25.637Z,3.73
2019-03-09T07:00:59.796Z,2.93
2019-03-09T07:03:30.647Z,4.07
2019-03-09T07:06:00.466Z,3.07
2019-03-09T07:08:31.132Z,3.27
2019-03-09T07:11:00.658Z,3.00
2019-03-09T07:14:40.823Z,3.13
2019-03-09T07:17:10.743Z,2.73
2019-03-09T07:19:40.138Z,2.87
2019-03-09T07:22:09.912Z,3.27
2019-03-09T07:24:39.127Z,3.07
2019-03-09T07:27:08.602Z,3.30
2019-03-09T07:29:38.220Z,3.50
2019-03-09T07:36:09.594Z,4.13
2019-03-09T07:50:56.500Z,6.07
2019-03-09T07:53:25.920Z,6.17
2019-03-09T07:55:55.340Z,7.95
2019-03-09T07:58:24.782Z,6.60
2019-03-09T08:00:54.108Z,6.80
2019-03-09T08:03:23.468Z,6.43
2019-03-09T08:05:52.776Z,7.20
2019-03-09T08:08:22.190Z,7.23
2019-03-09T08:10:51.439Z,5.77
2019-03-09T08:14:55.885Z,6.73
2019-03-09T08:17:25.180Z,6.77
2019-03-09T08:19:54.494Z,6.40
2019-03-09T08:31:06.131Z,5.37
2019-03-09T08:38:11.888Z,5.87
2019-03-09T08:49:08.294Z,5.07
2019-03-09T08:51:37.874Z,7.08
2019-03-09T08:54:08.432Z,4.70
2019-03-09T08:56:39.090Z,5.47
2019-03-09T08:59:08.744Z,5.03
2019-03-09T09:01:37.873Z,4.97
2019-03-09T09:04:07.199Z,5.72
2019-03-09T09:06:39.362Z,5.55
2019-03-09T09:09:09.384Z,4.30
2019-03-09T09:11:44.367Z,4.23
2019-03-09T09:14:13.862Z,4.00
2019-03-09T09:16:43.221Z,4.23
2019-03-09T09:19:12.613Z,3.90
2019-03-09T09:21:41.927Z,4.03
2019-03-09T09:24:11.186Z,4.17
2019-03-09T09:26:40.514Z,4.97
2019-03-09T09:29:10.018Z,4.40
2019-03-09T09:31:39.314Z,4.37
2019-03-09T09:38:13.683Z,4.03
2019-03-09T09:40:43.035Z,4.57
2019-03-09T09:43:12.424Z,3.63
2019-03-09T09:45:41.805Z,3.90
2019-03-09T09:48:11.110Z,3.73
2019-03-09T10:04:12.035Z,3.67
2019-03-09T10:06:43.465Z,3.70
2019-03-09T10:09:13.807Z,4.50
2019-03-09T10:11:43.116Z,4.27
2019-03-09T10:14:12.566Z,3.67
2019-03-09T10:16:41.836Z,3.70
2019-03-09T10:35:26.884Z,4.10
2019-03-09T10:37:57.695Z,4.13
2019-03-09T10:45:16.141Z,5.47
2019-03-09T11:13:55.142Z,4.13
2019-03-09T11:16:24.475Z,3.37
2019-03-09T11:23:05.971Z,3.17
2019-03-09T11:25:35.412Z,4.67
2019-03-09T11:28:12.736Z,4.13
2019-03-09T11:30:42.118Z,4.80
2019-03-09T11:33:11.586Z,4.43
2019-03-09T11:35:41.184Z,4.83
2019-03-09T11:38:11.018Z,5.43
2019-03-09T11:40:40.965Z,4.90
2019-03-09T11:43:10.905Z,5.40
2019-03-09T11:45:40.797Z,4.90
2019-03-09T11:48:10.790Z,6.20
2019-03-09T11:50:40.653Z,5.60
2019-03-09T11:53:10.622Z,5.27
2019-03-09T11:55:43.103Z,5.53
2019-03-09T11:58:12.794Z,5.13
2019-03-09T12:00:45.136Z,5.10
2019-03-09T12:03:12.498Z,5.83
2019-03-09T12:05:42.228Z,7.17
2019-03-09T12:08:11.845Z,7.10
2019-03-09T12:18:08.728Z,6.07
2019-03-09T12:20:38.115Z,5.50
2019-03-09T12:27:24.204Z,6.07
2019-03-09T12:29:53.602Z,5.67
2019-03-09T12:32:24.885Z,7.27
2019-03-09T12:34:54.168Z,5.57
2019-03-09T12:37:23.595Z,5.40
2019-03-09T12:39:52.898Z,5.27
2019-03-09T12:42:22.303Z,4.67
2019-03-09T12:44:51.653Z,6.07
2019-03-09T12:47:21.169Z,5.23
2019-03-09T12:49:50.433Z,5.67
2019-03-09T12:52:19.794Z,6.47
2019-03-09T12:54:48.985Z,6.17
2019-03-09T12:57:34.421Z,6.40
2019-03-09T13:00:48.254Z,6.83
2019-03-09T13:03:17.787Z,6.90
2019-03-09T13:05:52.165Z,5.10
2019-03-09T13:08:26.586Z,6.30
2019-03-09T13:11:43.723Z,7.10
2019-03-09T13:14:34.054Z,6.73
2019-03-09T13:18:12.774Z,6.47
2019-03-09T13:22:06.463Z,6.50
2019-03-09T13:25:14.918Z,6.03
2019-03-09T13:31:33.130Z,6.30
2019-03-09T13:34:07.241Z,6.33
2019-03-09T13:36:47.533Z,6.57
2019-03-09T13:39:19.281Z,6.83
2019-03-09T13:41:52.193Z,6.73
2019-03-09T13:44:26.533Z,7.07
2019-03-09T13:47:04.995Z,6.93
2019-03-09T13:49:39.651Z,6.77
2019-03-09T13:52:13.582Z,8.95
2019-03-09T13:54:47.451Z,7.30
2019-03-09T13:57:20.876Z,7.37
2019-03-09T13:59:52.537Z,6.50
2019-03-09T14:02:24.708Z,6.53
2019-03-09T14:04:54.551Z,5.70
2019-03-09T14:07:32.476Z,6.17
2019-03-09T14:10:10.724Z,6.23
2019-03-09T14:12:40.312Z,6.20
2019-03-09T14:15:28.911Z,6.27
2019-03-09T14:17:51.404Z,6.53
2019-03-09T14:20:25.493Z,5.10
2019-03-09T14:22:55.553Z,7.50
2019-03-09T14:25:44.528Z,4.73
2019-03-09T14:28:14.283Z,5.33
2019-03-09T14:30:49.256Z,3.60
2019-03-09T14:33:37.197Z,2.13
2019-03-09T14:36:04.764Z,2.90
2019-03-09T14:38:39.688Z,2.97
2019-03-09T14:41:09.425Z,1.40
2019-03-09T14:43:56.950Z,2.50
2019-03-09T14:46:40.866Z,1.97
2019-03-09T14:49:10.354Z,1.70
2019-03-09T14:51:39.862Z,1.80
2019-03-09T14:54:15.412Z,1.77
2019-03-09T14:56:54.416Z,1.73
2019-03-09T14:59:32.491Z,2.30
2019-03-09T15:02:01.949Z,2.90
2019-03-09T15:04:34.421Z,2.37
2019-03-09T15:07:08.026Z,2.30
2019-03-09T15:09:40.073Z,3.40
2019-03-09T15:12:27.510Z,4.27
2019-03-09T15:14:57.041Z,3.87
2019-03-09T15:17:34.614Z,2.93
2019-03-09T15:20:11.749Z,3.92
2019-03-09T15:22:50.937Z,3.10
2019-03-09T15:25:25.487Z,3.40
2019-03-09T15:27:58.253Z,3.50
2019-03-09T15:30:28.101Z,2.63
2019-03-09T15:33:06.377Z,3.77
2019-03-09T15:35:35.304Z,3.43
2019-03-09T15:38:06.462Z,2.83
2019-03-09T15:40:38.927Z,2.77
2019-03-09T15:43:08.674Z,2.80
2019-03-09T15:45:43.025Z,2.93
2019-03-09T15:48:12.757Z,2.60
2019-03-09T15:50:48.397Z,2.97
2019-03-09T15:53:20.395Z,2.63
2019-03-09T15:55:53.040Z,2.70
2019-03-09T15:58:22.888Z,2.30
2019-03-09T16:00:55.160Z,3.40
2019-03-09T16:03:46.826Z,2.47
2019-03-09T16:06:22.679Z,2.03
2019-03-09T16:08:55.894Z,2.63
2019-03-09T16:11:26.937Z,2.50
2019-03-09T16:14:08.737Z,3.17
2019-03-09T16:16:51.478Z,2.30
2019-03-09T16:19:16.992Z,2.77
2019-03-09T16:21:58.216Z,3.63
2019-03-09T16:24:36.514Z,2.80
2019-03-09T16:27:16.078Z,2.90
2019-03-09T16:29:52.840Z,2.73
2019-03-09T16:32:23.512Z,2.40
2019-03-09T16:34:53.581Z,2.20
2019-03-09T16:37:23.101Z,2.50
2019-03-09T16:39:53.130Z,2.37
2019-03-09T16:42:26.598Z,3.07
2019-03-09T16:45:09.761Z,2.10
2019-03-09T16:47:54.214Z,3.17
2019-03-09T16:50:37.051Z,2.07
2019-03-09T16:53:24.866Z,2.10
2019-03-09T16:55:43.816Z,2.87
2019-03-09T16:58:41.065Z,2.50
2019-03-09T17:01:20.613Z,3.00
2019-03-09T17:04:04.264Z,2.90
2019-03-09T17:06:36.528Z,2.90
2019-03-09T17:09:09.991Z,3.70
2019-03-09T17:11:48.518Z,3.20
2019-03-09T17:14:25.392Z,2.67
2019-03-09T17:17:03.028Z,2.50
2019-03-09T17:19:55.098Z,2.90
2019-03-09T17:22:33.168Z,3.30
2019-03-09T17:25:12.899Z,3.37
2019-03-09T17:27:44.339Z,2.70
2019-03-09T17:30:20.253Z,2.40
2019-03-09T17:33:18.966Z,3.63
2019-03-09T17:36:00.012Z,3.07
2019-03-09T17:38:29.516Z,3.33
2019-03-09T17:41:15.074Z,3.50
2019-03-09T17:43:54.043Z,2.70
2019-03-09T17:49:20.684Z,2.60
2019-03-09T17:52:03.433Z,3.30
2019-03-09T17:54:44.280Z,2.50
2019-03-09T17:57:19.267Z,3.87
2019-03-09T17:59:56.353Z,3.00
2019-03-09T18:02:43.029Z,2.97
2019-03-09T18:05:10.928Z,2.40
2019-03-09T18:08:14.688Z,2.50
2019-03-09T18:10:51.773Z,3.27
2019-03-09T18:13:21.573Z,3.03
2019-03-09T18:15:54.677Z,2.47
2019-03-09T18:18:24.127Z,2.63
2019-03-09T18:20:55.737Z,2.10
2019-03-09T18:23:29.451Z,3.13
2019-03-09T18:26:02.759Z,3.43
2019-03-09T18:28:37.303Z,2.60
2019-03-09T18:31:21.326Z,2.30
2019-03-09T18:34:00.214Z,2.60
2019-03-09T18:36:39.283Z,2.90
2019-03-09T18:39:16.640Z,2.87
2019-03-09T18:41:53.110Z,3.37
2019-03-09T18:44:32.211Z,2.60
2019-03-09T18:47:16.163Z,3.47
2019-03-09T18:49:54.124Z,3.27
2019-03-09T18:52:29.823Z,2.73
2019-03-09T18:55:00.643Z,2.70
2019-03-09T18:57:38.347Z,2.93
2019-03-09T19:00:27.776Z,2.80
2019-03-09T19:03:04.720Z,3.63
2019-03-09T19:05:37.479Z,2.90
2019-03-09T19:08:13.237Z,3.33
2019-03-09T19:10:43.556Z,2.90
2019-03-09T19:13:23.088Z,3.10
2019-03-09T19:15:58.049Z,2.70
2019-03-09T19:18:35.709Z,2.83
2019-03-09T19:21:13.518Z,2.90
2019-03-09T19:23:53.572Z,3.60
2019-03-09T19:26:23.114Z,3.53
2019-03-09T19:28:56.039Z,3.40
2019-03-09T19:31:33.426Z,3.43
2019-03-09T19:34:08.462Z,3.50
2019-03-09T19:36:39.812Z,3.27
2019-03-09T19:39:29.257Z,4.40
2019-03-09T19:41:55.381Z,3.40
2019-03-09T19:44:37.194Z,3.90
2019-03-09T19:47:06.515Z,3.43
2019-03-09T19:49:41.341Z,3.40
2019-03-09T19:52:19.013Z,3.50
2019-03-09T19:54:58.853Z,3.23
2019-03-09T19:57:59.691Z,4.78
2019-03-09T20:00:26.335Z,3.70
2019-03-09T20:03:08.621Z,3.17
2019-03-09T20:06:01.918Z,3.50
2019-03-09T20:08:30.412Z,4.00
2019-03-09T20:11:14.420Z,4.03
2019-03-09T20:13:50.525Z,4.20
2019-03-09T20:16:27.483Z,3.30
2019-03-09T20:19:07.039Z,3.63
2019-03-09T20:22:01.615Z,4.13
2019-03-09T20:25:09.885Z,3.03
2019-03-09T20:27:48.480Z,3.93
2019-03-09T20:30:30.855Z,3.70
2019-03-09T20:33:07.603Z,3.70
2019-03-09T20:35:36.936Z,3.87
2019-03-09T20:38:06.026Z,3.17
2019-03-09T20:40:35.250Z,3.50
2019-03-09T20:43:04.535Z,3.43
2019-03-09T20:46:25.492Z,3.67
2019-03-09T20:51:31.936Z,3.67
2019-03-09T20:52:31.426Z,3.53
2019-03-09T21:05:07.481Z,3.80
2019-03-09T21:07:23.047Z,3.53
2019-03-09T21:09:52.295Z,3.30
2019-03-09T21:12:21.567Z,6.60
2019-03-09T21:14:52.150Z,3.70
2019-03-09T21:17:21.439Z,3.13
2019-03-09T21:20:11.112Z,3.30
2019-03-09T21:22:40.346Z,3.63
2019-03-09T21:25:09.513Z,3.43
2019-03-09T21:31:37.774Z,2.60
2019-03-09T21:34:05.832Z,3.63
2019-03-09T21:36:34.976Z,3.13
2019-03-09T21:39:05.254Z,3.03
2019-03-09T21:41:34.350Z,3.17
2019-03-09T21:44:03.683Z,3.30
2019-03-09T21:46:32.892Z,3.30
2019-03-09T21:49:02.056Z,6.53
2019-03-09T21:59:19.264Z,3.47
2019-03-09T22:01:48.622Z,3.43
2019-03-09T22:04:18.214Z,3.00
2019-03-09T22:06:47.875Z,3.70
2019-03-09T22:09:17.583Z,3.33
2019-03-09T22:11:47.784Z,3.87
2019-03-09T22:14:17.252Z,4.00
2019-03-09T22:16:56.245Z,4.13
2019-03-09T22:19:16.426Z,4.12
2019-03-09T22:21:46.814Z,3.93
2019-03-09T22:24:16.461Z,3.67
2019-03-09T22:26:45.557Z,3.50
2019-03-09T22:33:13.340Z,3.80
2019-03-09T22:35:42.917Z,3.63
2019-03-09T22:38:15.238Z,3.73
2019-03-09T22:49:16.156Z,3.30
2019-03-09T22:56:31.350Z,3.17
2019-03-09T23:08:14.650Z,5.22
2019-03-09T23:31:12.988Z,3.70
2019-03-09T23:33:42.086Z,4.80
2019-03-09T23:52:22.863Z,4.30
2019-03-09T23:54:52.023Z,4.03
